Time;durP1;ratioP1;P1;durP2;ratioP2;P2;SDS_P1;SDS_P2;PMS_P1;PMS_P2;Temp;Humidity;BMP_temperature;BMP_pressure;BME280_temperature;BME280_humidity;BME280_pressure;Samples;Min_cycle;Max_cycle;Signal;HPM_P1;HPM_P2
2021/08/28 00:01:58;;;;;;;5.05;2.20;;;;;;;;;;5032786;28;20033;-50
2021/08/28 00:04:24;;;;;;;3.85;1.88;;;;;;;;;;5031244;28;20066;-50
2021/08/28 00:06:50;;;;;;;3.78;2.08;;;;;;;;;;5032945;28;20022;-50
2021/08/28 00:09:16;;;;;;;3.25;2.28;;;;;;;;;;5032922;28;20063;-50
2021/08/28 00:11:42;;;;;;;4.70;2.35;;;;;;;;;;5032657;28;20033;-51
2021/08/28 00:14:08;;;;;;;5.45;1.88;;;;;;;;;;5031225;28;20033;-50
2021/08/28 00:16:34;;;;;;;2.42;1.80;;;;;;;;;;5033099;28;20035;-51
2021/08/28 00:19:00;;;;;;;4.22;2.13;;;;;;;;;;5031865;28;20021;-50
2021/08/28 00:21:26;;;;;;;4.00;2.20;;;;;;;;;;5032498;28;20120;-50
2021/08/28 00:23:52;;;;;;;3.65;2.08;;;;;;;;;;5031826;28;20359;-50
2021/08/28 00:26:18;;;;;;;2.90;2.00;;;;;;;;;;5032520;28;20036;-50
2021/08/28 00:28:44;;;;;;;8.13;2.40;;;;;;;;;;5031715;28;20075;-50
2021/08/28 00:31:10;;;;;;;4.07;2.00;;;;;;;;;;5032823;28;20029;-50
2021/08/28 00:33:36;;;;;;;4.85;2.05;;;;;;;;;;5031785;28;20044;-50
2021/08/28 00:36:02;;;;;;;3.00;2.03;;;;;;;;;;5031804;28;20316;-50
2021/08/28 00:38:28;;;;;;;2.47;1.95;;;;;;;;;;5032514;28;20026;-50
2021/08/28 00:40:56;;;;;;;3.40;2.35;;;;;;;;;;5023169;28;20414;-49
2021/08/28 00:43:23;;;;;;;4.85;2.50;;;;;;;;;;5023320;28;20439;-50
2021/08/28 00:45:49;;;;;;;3.17;2.33;;;;;;;;;;5032429;28;20116;-50
2021/08/28 00:48:16;;;;;;;2.38;1.85;;;;;;;;;;5033445;28;20487;-50
2021/08/28 00:50:43;;;;;;;2.60;2.03;;;;;;;;;;5028546;28;20041;-50
2021/08/28 00:53:10;;;;;;;3.65;2.03;;;;;;;;;;5036109;28;20529;-49
2021/08/28 00:55:36;;;;;;;2.97;1.73;;;;;;;;;;5035605;28;20367;-50
2021/08/28 00:58:02;;;;;;;3.72;1.80;;;;;;;;;;5036443;28;20044;-49
2021/08/28 01:00:29;;;;;;;3.58;2.17;;;;;;;;;;5035483;28;20052;-49
2021/08/28 01:02:56;;;;;;;2.97;2.10;;;;;;;;;;5036410;28;20028;-49
2021/08/28 01:05:45;;;;;;;3.63;1.50;;;;;;;;;;5034562;28;20033;-49
2021/08/28 01:08:11;;;;;;;2.92;1.80;;;;;;;;;;5035375;28;20444;-50
2021/08/28 01:10:39;;;;;;;3.42;1.70;;;;;;;;;;5036305;28;20029;-50
2021/08/28 01:13:11;;;;;;;3.47;2.10;;;;;;;;;;5035702;28;20087;-50
2021/08/28 01:15:38;;;;;;;4.10;1.50;;;;;;;;;;5034603;28;20029;-50
2021/08/28 01:18:05;;;;;;;3.65;2.30;;;;;;;;;;5035650;28;20053;-50
2021/08/28 01:20:34;;;;;;;2.50;1.88;;;;;;;;;;5034714;28;20050;-50
2021/08/28 01:23:01;;;;;;;8.25;1.80;;;;;;;;;;5035828;28;20032;-50
2021/08/28 01:25:28;;;;;;;2.42;1.58;;;;;;;;;;5034240;28;20413;-50
2021/08/28 01:28:00;;;;;;;2.90;1.65;;;;;;;;;;5035544;28;20030;-50
2021/08/28 01:30:26;;;;;;;3.58;1.85;;;;;;;;;;5035459;28;20040;-50
2021/08/28 01:32:52;;;;;;;2.83;1.73;;;;;;;;;;5036001;28;20028;-50
2021/08/28 01:35:19;;;;;;;3.03;1.83;;;;;;;;;;5033887;28;20438;-50
2021/08/28 01:37:45;;;;;;;4.47;1.70;;;;;;;;;;5050837;28;20375;-50
2021/08/28 01:40:12;;;;;;;2.35;1.80;;;;;;;;;;5034853;28;20041;-50
2021/08/28 01:42:38;;;;;;;3.20;1.75;;;;;;;;;;5035322;28;20052;-50
2021/08/28 01:45:05;;;;;;;3.17;1.83;;;;;;;;;;5034482;28;20108;-50
2021/08/28 01:47:31;;;;;;;1.88;1.40;;;;;;;;;;5035045;28;20021;-50
2021/08/28 01:49:57;;;;;;;2.85;1.58;;;;;;;;;;5034367;28;20314;-50
2021/08/28 01:52:23;;;;;;;2.35;1.30;;;;;;;;;;5035045;28;20082;-50
2021/08/28 01:54:49;;;;;;;3.28;1.60;;;;;;;;;;5034190;28;20029;-50
2021/08/28 01:57:16;;;;;;;2.58;1.70;;;;;;;;;;5035269;28;20050;-50
2021/08/28 01:59:42;;;;;;;1.58;1.13;;;;;;;;;;5034590;28;20044;-50
2021/08/28 02:02:08;;;;;;;3.40;1.73;;;;;;;;;;5035163;28;20053;-50
2021/08/28 02:04:34;;;;;;;2.00;1.40;;;;;;;;;;5034059;28;20104;-50
2021/08/28 02:07:15;;;;;;;3.33;1.45;;;;;;;;;;5033885;28;20025;-49
2021/08/28 02:09:46;;;;;;;1.42;1.30;;;;;;;;;;5035138;28;20036;-50
2021/08/28 02:12:18;;;;;;;2.83;1.52;;;;;;;;;;5035061;28;20029;-50
2021/08/28 02:14:48;;;;;;;2.03;1.40;;;;;;;;;;5033404;28;20087;-50
2021/08/28 02:17:14;;;;;;;1.67;1.47;;;;;;;;;;5028429;28;20101;-50
2021/08/28 02:19:43;;;;;;;3.88;1.70;;;;;;;;;;5032721;28;20029;-50
2021/08/28 02:22:11;;;;;;;2.72;1.52;;;;;;;;;;5033683;28;20033;-50
2021/08/28 02:24:38;;;;;;;1.40;1.25;;;;;;;;;;5033898;28;20067;-50
2021/08/28 02:27:30;;;;;;;2.90;1.38;;;;;;;;;;5034271;28;20068;-50
2021/08/28 02:30:03;;;;;;;7.07;1.65;;;;;;;;;;5032128;28;20068;-50
2021/08/28 02:32:31;;;;;;;1.90;1.65;;;;;;;;;;5034175;28;20402;-49
2021/08/28 02:34:57;;;;;;;1.40;1.20;;;;;;;;;;5034115;28;20026;-50
2021/08/28 02:37:24;;;;;;;1.80;1.42;;;;;;;;;;5033064;28;20039;-50
2021/08/28 02:39:50;;;;;;;3.63;1.20;;;;;;;;;;5034256;28;20040;-50
2021/08/28 02:42:17;;;;;;;5.03;1.48;;;;;;;;;;5034709;28;20068;-50
2021/08/28 02:44:44;;;;;;;4.75;1.77;;;;;;;;;;5032983;28;20501;-50
2021/08/28 02:47:10;;;;;;;2.75;1.85;;;;;;;;;;5034120;28;20404;-49
2021/08/28 02:49:38;;;;;;;2.15;1.63;;;;;;;;;;5034193;28;20347;-49
2021/08/28 02:52:05;;;;;;;2.95;1.70;;;;;;;;;;5032986;28;20033;-50
2021/08/28 02:54:32;;;;;;;4.95;2.00;;;;;;;;;;5033328;28;20025;-49
2021/08/28 02:56:59;;;;;;;3.10;1.73;;;;;;;;;;5033744;28;20052;-50
2021/08/28 02:59:25;;;;;;;3.42;1.73;;;;;;;;;;5033188;28;20079;-50
2021/08/28 03:01:51;;;;;;;3.08;2.28;;;;;;;;;;5034078;28;20053;-50
2021/08/28 03:04:20;;;;;;;5.88;1.80;;;;;;;;;;5032928;28;20026;-50
2021/08/28 03:06:47;;;;;;;3.80;1.70;;;;;;;;;;5033202;28;20198;-50
2021/08/28 03:09:14;;;;;;;3.75;2.05;;;;;;;;;;5033693;28;20036;-50
2021/08/28 03:11:40;;;;;;;2.78;2.22;;;;;;;;;;5033453;28;20111;-49
2021/08/28 03:14:06;;;;;;;1.75;1.63;;;;;;;;;;5032423;28;20068;-49
2021/08/28 03:16:32;;;;;;;5.28;2.00;;;;;;;;;;5033764;28;20029;-50
2021/08/28 03:19:00;;;;;;;4.00;2.38;;;;;;;;;;5033129;28;20332;-50
2021/08/28 03:21:27;;;;;;;3.78;2.03;;;;;;;;;;5033229;28;20436;-50
2021/08/28 03:23:54;;;;;;;3.72;2.25;;;;;;;;;;5032909;28;20034;-50
2021/08/28 03:26:22;;;;;;;2.45;1.95;;;;;;;;;;5033657;28;20398;-50
2021/08/28 03:28:48;;;;;;;4.45;2.45;;;;;;;;;;5033199;28;20037;-50
2021/08/28 03:31:16;;;;;;;7.47;2.53;;;;;;;;;;5033024;28;20025;-50
2021/08/28 03:33:44;;;;;;;3.67;2.10;;;;;;;;;;5032174;28;20359;-50
2021/08/28 03:36:10;;;;;;;2.20;1.90;;;;;;;;;;5032438;28;20033;-50
2021/08/28 03:38:36;;;;;;;2.80;2.25;;;;;;;;;;5033476;28;20057;-50
2021/08/28 03:41:03;;;;;;;5.63;2.20;;;;;;;;;;5033488;28;20041;-50
2021/08/28 03:43:29;;;;;;;6.45;2.47;;;;;;;;;;5032402;28;20064;-50
2021/08/28 03:45:55;;;;;;;3.60;2.55;;;;;;;;;;5032742;28;20029;-50
2021/08/28 03:48:22;;;;;;;6.20;1.88;;;;;;;;;;5032869;28;20071;-51
2021/08/28 03:50:48;;;;;;;3.58;2.35;;;;;;;;;;5032781;28;20029;-50
2021/08/28 03:53:14;;;;;;;5.35;2.72;;;;;;;;;;5033170;28;20021;-50
2021/08/28 03:55:41;;;;;;;2.40;2.17;;;;;;;;;;5032578;28;20052;-50
2021/08/28 03:58:06;;;;;;;8.52;3.10;;;;;;;;;;5032845;28;20450;-49
2021/08/28 04:00:33;;;;;;;4.68;2.78;;;;;;;;;;5032189;28;20072;-50
2021/08/28 04:02:59;;;;;;;7.22;2.80;;;;;;;;;;5032908;28;20029;-50
2021/08/28 04:05:25;;;;;;;2.72;2.03;;;;;;;;;;5031921;28;20022;-50
2021/08/28 04:07:51;;;;;;;4.53;2.95;;;;;;;;;;5031796;28;20355;-50
2021/08/28 04:10:19;;;;;;;9.35;2.90;;;;;;;;;;5033070;28;20025;-50
2021/08/28 04:12:45;;;;;;;4.43;2.65;;;;;;;;;;5032777;28;20021;-50
2021/08/28 04:15:12;;;;;;;4.35;2.70;;;;;;;;;;5031404;28;20363;-49
2021/08/28 04:17:38;;;;;;;5.28;2.95;;;;;;;;;;5032178;28;20033;-50
2021/08/28 04:20:04;;;;;;;10.15;3.03;;;;;;;;;;5032733;28;20117;-49
2021/08/28 04:22:30;;;;;;;8.23;3.20;;;;;;;;;;5031770;28;20355;-49
2021/08/28 04:24:57;;;;;;;3.72;3.03;;;;;;;;;;5035738;28;20017;-50
2021/08/28 04:27:23;;;;;;;6.35;3.10;;;;;;;;;;5036841;28;20099;-50
2021/08/28 04:29:49;;;;;;;4.22;2.80;;;;;;;;;;5035767;28;20444;-50
2021/08/28 04:32:15;;;;;;;4.05;3.20;;;;;;;;;;5036792;28;20018;-50
2021/08/28 04:34:41;;;;;;;5.07;2.90;;;;;;;;;;5035574;28;20025;-49
2021/08/28 04:37:07;;;;;;;10.82;3.28;;;;;;;;;;5035888;28;20061;-49
2021/08/28 04:39:33;;;;;;;5.70;3.10;;;;;;;;;;5036796;28;20069;-49
2021/08/28 04:41:59;;;;;;;6.40;3.78;;;;;;;;;;5036512;28;20056;-50
2021/08/28 04:44:25;;;;;;;5.78;3.30;;;;;;;;;;5035832;28;20049;-50
2021/08/28 04:46:51;;;;;;;6.28;3.30;;;;;;;;;;5036170;28;20068;-49
2021/08/28 04:49:17;;;;;;;7.18;2.88;;;;;;;;;;5036663;28;20032;-49
2021/08/28 04:51:43;;;;;;;5.63;3.30;;;;;;;;;;5035202;28;20352;-50
2021/08/28 04:54:08;;;;;;;8.25;3.03;;;;;;;;;;5035884;28;20033;-50
2021/08/28 04:56:34;;;;;;;5.22;2.95;;;;;;;;;;5036570;28;20513;-49
2021/08/28 04:59:00;;;;;;;5.40;2.97;;;;;;;;;;5035918;28;20029;-50
2021/08/28 05:01:26;;;;;;;3.97;2.95;;;;;;;;;;5035381;28;20052;-50
2021/08/28 05:03:52;;;;;;;5.00;3.13;;;;;;;;;;5035519;28;20018;-50
2021/08/28 05:06:18;;;;;;;3.92;2.53;;;;;;;;;;5036346;28;20448;-50
2021/08/28 05:08:44;;;;;;;4.90;3.08;;;;;;;;;;5035605;28;20032;-50
2021/08/28 05:11:11;;;;;;;6.07;3.08;;;;;;;;;;5035939;28;20026;-50
2021/08/28 05:13:37;;;;;;;3.30;2.65;;;;;;;;;;5034669;28;20476;-50
2021/08/28 05:16:03;;;;;;;4.20;2.75;;;;;;;;;;5035611;28;20030;-50
2021/08/28 05:18:29;;;;;;;5.90;3.30;;;;;;;;;;5036189;28;20029;-50
2021/08/28 05:20:55;;;;;;;6.32;3.47;;;;;;;;;;5035692;28;20521;-50
2021/08/28 05:23:20;;;;;;;6.60;3.17;;;;;;;;;;5034786;28;20029;-50
2021/08/28 05:25:47;;;;;;;8.10;3.28;;;;;;;;;;5034969;28;20048;-50
2021/08/28 05:28:13;;;;;;;11.95;3.13;;;;;;;;;;5034113;28;20035;-50
2021/08/28 05:30:38;;;;;;;6.60;3.42;;;;;;;;;;5035339;28;20048;-49
2021/08/28 05:33:05;;;;;;;8.13;3.33;;;;;;;;;;5034778;28;20030;-50
2021/08/28 05:35:30;;;;;;;5.90;2.95;;;;;;;;;;5034115;28;20447;-50
2021/08/28 05:37:56;;;;;;;5.45;3.05;;;;;;;;;;5033912;28;20067;-50
2021/08/28 05:40:23;;;;;;;7.53;3.25;;;;;;;;;;5034603;28;20171;-50
2021/08/28 05:42:49;;;;;;;10.63;3.50;;;;;;;;;;5034074;28;20456;-50
2021/08/28 05:45:15;;;;;;;5.97;2.78;;;;;;;;;;5033788;28;20029;-50
2021/08/28 05:47:41;;;;;;;17.88;3.50;;;;;;;;;;5034792;28;20029;-49
2021/08/28 05:50:07;;;;;;;4.93;3.20;;;;;;;;;;5035344;28;20021;-50
2021/08/28 05:52:33;;;;;;;4.05;2.50;;;;;;;;;;5034528;28;20108;-50
2021/08/28 05:54:59;;;;;;;5.05;3.00;;;;;;;;;;5034552;28;20466;-50
2021/08/28 05:57:25;;;;;;;5.72;3.00;;;;;;;;;;5035249;28;20029;-49
2021/08/28 05:59:51;;;;;;;3.33;2.47;;;;;;;;;;5034755;28;20578;-50
2021/08/28 06:02:17;;;;;;;6.90;2.72;;;;;;;;;;5034484;28;20030;-50
2021/08/28 06:04:43;;;;;;;4.03;2.72;;;;;;;;;;5033685;28;20025;-50
2021/08/28 06:07:09;;;;;;;5.70;2.88;;;;;;;;;;5034192;28;21087;-50
2021/08/28 06:09:35;;;;;;;5.60;2.97;;;;;;;;;;5034760;28;20029;-50
2021/08/28 06:12:01;;;;;;;7.00;3.58;;;;;;;;;;5034637;28;20032;-50
2021/08/28 06:14:27;;;;;;;4.80;3.22;;;;;;;;;;5033871;28;20033;-50
2021/08/28 06:16:53;;;;;;;5.60;3.38;;;;;;;;;;5034428;28;20035;-50
2021/08/28 06:19:20;;;;;;;4.85;3.25;;;;;;;;;;5034809;28;20033;-50
2021/08/28 06:21:46;;;;;;;3.83;2.85;;;;;;;;;;5034639;28;20026;-50
2021/08/28 06:24:12;;;;;;;5.72;3.55;;;;;;;;;;5033370;28;20036;-50
2021/08/28 06:26:38;;;;;;;5.18;2.78;;;;;;;;;;5033933;28;20030;-50
2021/08/28 06:29:05;;;;;;;4.57;2.92;;;;;;;;;;5034536;28;20383;-50
2021/08/28 06:31:31;;;;;;;5.63;3.58;;;;;;;;;;5034311;28;20041;-50
2021/08/28 06:33:57;;;;;;;7.88;3.55;;;;;;;;;;5033901;28;20021;-50
2021/08/28 06:36:23;;;;;;;4.75;3.30;;;;;;;;;;5034755;28;20025;-50
2021/08/28 06:38:49;;;;;;;4.85;2.90;;;;;;;;;;5033881;28;20041;-50
2021/08/28 06:41:15;;;;;;;4.75;3.10;;;;;;;;;;5033990;28;20443;-50
2021/08/28 06:43:41;;;;;;;3.65;2.65;;;;;;;;;;5033888;28;20026;-50
2021/08/28 06:46:07;;;;;;;3.72;2.80;;;;;;;;;;5033228;28;20755;-50
2021/08/28 06:48:33;;;;;;;5.22;3.00;;;;;;;;;;5033997;28;20026;-50
2021/08/28 06:50:59;;;;;;;4.32;3.20;;;;;;;;;;5033675;28;20028;-50
2021/08/28 06:53:25;;;;;;;7.50;3.03;;;;;;;;;;5032650;28;20033;-50
2021/08/28 06:55:51;;;;;;;8.93;3.40;;;;;;;;;;5034062;28;20042;-50
2021/08/28 06:58:17;;;;;;;4.30;3.53;;;;;;;;;;5033862;28;20029;-50
2021/08/28 07:00:43;;;;;;;5.47;3.50;;;;;;;;;;5033924;28;20036;-50
2021/08/28 07:03:09;;;;;;;5.90;3.33;;;;;;;;;;5033406;28;20025;-50
2021/08/28 07:05:36;;;;;;;5.25;3.17;;;;;;;;;;5033066;28;20450;-50
2021/08/28 07:08:02;;;;;;;7.20;3.45;;;;;;;;;;5032940;28;20071;-50
2021/08/28 07:10:28;;;;;;;7.22;3.17;;;;;;;;;;5033378;28;20037;-50
2021/08/28 07:12:54;;;;;;;7.32;3.20;;;;;;;;;;5033787;28;20026;-50
2021/08/28 07:15:20;;;;;;;5.38;3.35;;;;;;;;;;5033335;28;20025;-50
2021/08/28 07:17:46;;;;;;;5.28;2.67;;;;;;;;;;5033335;28;20033;-50
2021/08/28 07:20:12;;;;;;;7.05;3.33;;;;;;;;;;5033270;28;20362;-50
2021/08/28 07:22:38;;;;;;;7.22;3.10;;;;;;;;;;5032492;28;20277;-50
2021/08/28 07:25:04;;;;;;;4.60;2.97;;;;;;;;;;5033115;28;20566;-50
2021/08/28 07:27:30;;;;;;;3.55;2.65;;;;;;;;;;5033415;28;20212;-50
2021/08/28 07:29:56;;;;;;;5.13;3.25;;;;;;;;;;5033490;28;20233;-50
2021/08/28 07:32:22;;;;;;;4.60;3.22;;;;;;;;;;5032728;28;20030;-50
2021/08/28 07:34:50;;;;;;;4.18;2.92;;;;;;;;;;5032733;28;20035;-50
2021/08/28 07:37:16;;;;;;;2.72;2.20;;;;;;;;;;5033166;28;20017;-50
2021/08/28 07:39:42;;;;;;;3.97;2.53;;;;;;;;;;5032268;28;20542;-51
2021/08/28 07:42:08;;;;;;;5.03;2.80;;;;;;;;;;5033061;28;20049;-50
2021/08/28 07:44:34;;;;;;;5.45;2.65;;;;;;;;;;5032571;28;20506;-49
2021/08/28 07:47:00;;;;;;;3.92;2.25;;;;;;;;;;5032476;28;20021;-50
2021/08/28 07:49:26;;;;;;;3.83;2.38;;;;;;;;;;5033311;28;20021;-50
2021/08/28 07:51:52;;;;;;;3.03;2.25;;;;;;;;;;5032842;28;20033;-50
2021/08/28 07:54:18;;;;;;;3.67;2.80;;;;;;;;;;5031798;28;20112;-50
2021/08/28 07:56:44;;;;;;;4.55;2.28;;;;;;;;;;5032734;28;20104;-50
2021/08/28 07:59:10;;;;;;;4.78;2.80;;;;;;;;;;5033340;28;20021;-50
2021/08/28 08:01:36;;;;;;;3.40;2.38;;;;;;;;;;5031953;28;20079;-50
2021/08/28 08:04:02;;;;;;;3.22;1.92;;;;;;;;;;5032209;28;20053;-50
2021/08/28 08:06:28;;;;;;;6.53;3.03;;;;;;;;;;5032927;28;20045;-50
2021/08/28 08:08:54;;;;;;;3.35;2.05;;;;;;;;;;5032164;28;20025;-50
2021/08/28 08:11:20;;;;;;;6.95;2.67;;;;;;;;;;5032712;28;20021;-50
2021/08/28 08:13:46;;;;;;;3.03;2.13;;;;;;;;;;5047163;28;20087;-50
2021/08/28 08:16:13;;;;;;;3.65;2.60;;;;;;;;;;5033239;28;20074;-50
2021/08/28 08:18:39;;;;;;;4.10;2.10;;;;;;;;;;5032197;28;20128;-50
2021/08/28 08:21:05;;;;;;;4.97;2.15;;;;;;;;;;5032369;28;20045;-50
2021/08/28 08:23:32;;;;;;;3.95;2.47;;;;;;;;;;5031368;28;20363;-50
2021/08/28 08:25:58;;;;;;;3.63;2.28;;;;;;;;;;5032514;28;20036;-50
2021/08/28 08:28:24;;;;;;;2.05;1.55;;;;;;;;;;5032491;28;20034;-50
2021/08/28 08:30:49;;;;;;;3.35;2.08;;;;;;;;;;5033039;28;20025;-50
2021/08/28 08:33:15;;;;;;;3.95;2.55;;;;;;;;;;5031522;28;20108;-50
2021/08/28 08:35:42;;;;;;;2.67;2.47;;;;;;;;;;5031390;28;20446;-50
2021/08/28 08:38:08;;;;;;;5.13;3.00;;;;;;;;;;5031927;28;20329;-50
2021/08/28 08:40:34;;;;;;;3.50;2.42;;;;;;;;;;5032693;28;20095;-50
2021/08/28 08:43:02;;;;;;;3.60;2.53;;;;;;;;;;5032105;28;20026;-50
2021/08/28 08:45:28;;;;;;;4.70;2.17;;;;;;;;;;5031948;28;20028;-50
2021/08/28 08:47:54;;;;;;;2.85;2.17;;;;;;;;;;5027899;28;20498;-50
2021/08/28 08:50:22;;;;;;;4.75;2.83;;;;;;;;;;5029629;28;20033;-50
2021/08/28 08:52:54;;;;;;;3.17;2.28;;;;;;;;;;5032157;28;20022;-50
2021/08/28 08:55:21;;;;;;;4.10;2.10;;;;;;;;;;5030528;28;20396;-50
2021/08/28 08:57:47;;;;;;;3.20;2.40;;;;;;;;;;5032374;28;20025;-50
2021/08/28 09:00:14;;;;;;;7.07;1.95;;;;;;;;;;5032399;28;20033;-50
2021/08/28 09:02:40;;;;;;;2.88;1.88;;;;;;;;;;5031532;28;20463;-51
2021/08/28 09:05:06;;;;;;;2.05;1.77;;;;;;;;;;5031222;28;20029;-52
2021/08/28 09:07:32;;;;;;;2.55;1.98;;;;;;;;;;5032093;28;20026;-52
2021/08/28 09:09:58;;;;;;;2.08;1.40;;;;;;;;;;5030644;28;20034;-52
2021/08/28 09:12:34;;;;;;;1.77;1.63;;;;;;;;;;5033426;28;20797;-52
2021/08/28 09:15:00;;;;;;;1.90;1.25;;;;;;;;;;5031858;28;20026;-52
2021/08/28 09:17:26;;;;;;;6.22;1.38;;;;;;;;;;5034590;28;20029;-52
2021/08/28 09:19:52;;;;;;;4.82;1.42;;;;;;;;;;5035837;28;20447;-52
2021/08/28 09:22:44;;;;;;;2.53;1.55;;;;;;;;;;5035830;28;20111;-52
2021/08/28 09:25:11;;;;;;;4.82;2.03;;;;;;;;;;5033756;28;20037;-52
2021/08/28 09:27:41;;;;;;;1.73;1.30;;;;;;;;;;5035576;28;20124;-50
2021/08/28 09:30:07;;;;;;;;;;;;;;;;;;5035994;28;20025;-50
2021/08/28 09:32:34;;;;;;;5.35;1.45;;;;;;;;;;5035144;28;19909;-50
2021/08/28 09:35:07;;;;;;;1.75;1.17;;;;;;;;;;5034891;28;20028;-50
2021/08/28 09:37:33;;;;;;;1.90;1.40;;;;;;;;;;5035634;28;20083;-50
2021/08/28 09:40:01;;;;;;;3.10;1.70;;;;;;;;;;5034548;28;20053;-50
2021/08/28 09:42:27;;;;;;;1.42;1.33;;;;;;;;;;5035218;28;20029;-50
2021/08/28 09:44:54;;;;;;;4.38;1.92;;;;;;;;;;5034701;28;20029;-50
2021/08/28 09:47:23;;;;;;;1.52;1.42;;;;;;;;;;5034446;28;20029;-50
2021/08/28 09:49:50;;;;;;;2.15;1.73;;;;;;;;;;5035214;28;20026;-50
2021/08/28 09:52:18;;;;;;;1.95;1.65;;;;;;;;;;5034960;28;20423;-50
2021/08/28 09:54:44;;;;;;;1.77;1.67;;;;;;;;;;5033531;28;20057;-50
2021/08/28 09:57:11;;;;;;;2.20;1.77;;;;;;;;;;5034778;28;20029;-50
2021/08/28 09:59:37;;;;;;;4.00;1.80;;;;;;;;;;5034935;28;20033;-51
2021/08/28 10:02:15;;;;;;;1.70;1.52;;;;;;;;;;5035189;28;20021;-50
2021/08/28 10:04:47;;;;;;;2.28;1.67;;;;;;;;;;5034121;28;20108;-50
2021/08/28 10:07:13;;;;;;;2.42;1.70;;;;;;;;;;5035181;28;20024;-50
2021/08/28 10:09:39;;;;;;;3.03;1.60;;;;;;;;;;5034107;28;20029;-50
2021/08/28 10:12:05;;;;;;;3.70;1.80;;;;;;;;;;5035407;28;20048;-50
2021/08/28 10:14:31;;;;;;;4.28;2.25;;;;;;;;;;5033846;28;20029;-50
2021/08/28 10:16:57;;;;;;;3.13;2.28;;;;;;;;;;5034630;28;20021;-50
2021/08/28 10:19:23;;;;;;;4.60;1.90;;;;;;;;;;5034652;28;20140;-50
2021/08/28 10:21:50;;;;;;;3.28;2.38;;;;;;;;;;5034613;28;20120;-50
2021/08/28 10:24:16;;;;;;;5.93;2.25;;;;;;;;;;5032427;28;20025;-50
2021/08/28 10:26:43;;;;;;;1.90;1.52;;;;;;;;;;5034589;28;20033;-50
2021/08/28 10:29:12;;;;;;;4.47;2.30;;;;;;;;;;5034756;28;20036;-50
2021/08/28 10:31:39;;;;;;;4.03;2.00;;;;;;;;;;5034456;28;20064;-50
2021/08/28 10:34:05;;;;;;;2.92;2.05;;;;;;;;;;5033366;28;20330;-50
2021/08/28 10:36:31;;;;;;;4.70;2.08;;;;;;;;;;5034746;28;20021;-50
2021/08/28 10:38:57;;;;;;;3.13;1.98;;;;;;;;;;5034335;28;20298;-50
2021/08/28 10:41:23;;;;;;;2.78;1.48;;;;;;;;;;5033779;28;20068;-50
2021/08/28 10:43:49;;;;;;;1.73;1.33;;;;;;;;;;5033418;28;20025;-50
2021/08/28 10:46:20;;;;;;;1.38;1.27;;;;;;;;;;5034411;28;20325;-50
2021/08/28 10:48:50;;;;;;;1.85;1.45;;;;;;;;;;5033633;28;20120;-50
2021/08/28 10:51:21;;;;;;;1.52;1.30;;;;;;;;;;5034174;28;20117;-50
2021/08/28 10:53:51;;;;;;;1.42;1.17;;;;;;;;;;5033551;28;20490;-50
2021/08/28 10:56:17;;;;;;;3.88;1.60;;;;;;;;;;5033458;28;20021;-50
2021/08/28 10:58:43;;;;;;;1.52;1.20;;;;;;;;;;5033743;28;20103;-50
2021/08/28 11:01:09;;;;;;;1.95;1.38;;;;;;;;;;5034245;28;20076;-50
2021/08/28 11:03:35;;;;;;;9.98;1.90;;;;;;;;;;5032798;28;20021;-50
2021/08/28 11:06:14;;;;;;;1.33;1.13;;;;;;;;;;5034063;28;20021;-50
2021/08/28 11:08:46;;;;;;;3.30;1.38;;;;;;;;;;5033832;28;20098;-50
2021/08/28 11:11:36;;;;;;;10.55;1.70;;;;;;;;;;5033182;28;20033;-50
2021/08/28 11:14:08;;;;;;;2.33;1.30;;;;;;;;;;5031523;28;20032;-50
2021/08/28 11:16:42;;;;;;;5.20;1.63;;;;;;;;;;5050888;28;20075;-50
2021/08/28 11:19:12;;;;;;;3.60;1.55;;;;;;;;;;5036210;28;20080;-50
2021/08/28 11:21:42;;;;;;;1.20;1.10;;;;;;;;;;5033617;28;20470;-50
2021/08/28 11:24:08;;;;;;;;;;;;;;;;;;5033469;28;20120;-50
2021/08/28 11:26:34;;;;;;;1.80;1.33;;;;;;;;;;5032043;28;20000;-50
2021/08/28 11:29:00;;;;;;;8.25;1.33;;;;;;;;;;5033626;28;20101;-50
2021/08/28 11:31:43;;;;;;;1.48;1.00;;;;;;;;;;5033598;28;20514;-50
2021/08/28 11:34:09;;;;;;;1.60;1.50;;;;;;;;;;5032157;28;20531;-50
2021/08/28 11:36:35;;;;;;;1.00;0.90;;;;;;;;;;5033217;28;20029;-50
2021/08/28 11:39:01;;;;;;;2.33;1.50;;;;;;;;;;5032799;28;20485;-50
2021/08/28 11:41:27;;;;;;;2.10;1.30;;;;;;;;;;5032663;28;20133;-50
2021/08/28 11:43:55;;;;;;;1.20;1.10;;;;;;;;;;5032651;28;20049;-50
2021/08/28 11:46:25;;;;;;;2.50;1.38;;;;;;;;;;5033445;28;20109;-50
2021/08/28 11:48:51;;;;;;;1.75;1.33;;;;;;;;;;5032361;28;20022;-50
2021/08/28 11:51:19;;;;;;;1.55;1.10;;;;;;;;;;5033240;28;20026;-50
2021/08/28 11:53:46;;;;;;;1.65;1.20;;;;;;;;;;5031757;28;20363;-50
2021/08/28 11:56:16;;;;;;;1.20;1.10;;;;;;;;;;5032169;28;20116;-50
2021/08/28 11:59:02;;;;;;;1.33;1.23;;;;;;;;;;5032919;28;20074;-50
2021/08/28 12:01:29;;;;;;;1.42;1.30;;;;;;;;;;5032938;28;20543;-50
2021/08/28 12:03:57;;;;;;;2.13;1.40;;;;;;;;;;5031676;28;20251;-50
2021/08/28 12:06:24;;;;;;;2.35;1.33;;;;;;;;;;5033160;28;20030;-50
2021/08/28 12:08:50;;;;;;;1.98;1.33;;;;;;;;;;5033272;28;20022;-50
2021/08/28 12:11:16;;;;;;;1.27;1.17;;;;;;;;;;5031531;28;20030;-50
2021/08/28 12:13:56;;;;;;;2.35;1.30;;;;;;;;;;5032361;28;20116;-50
2021/08/28 12:16:25;;;;;;;1.92;1.20;;;;;;;;;;5033014;28;20025;-50
2021/08/28 12:18:59;;;;;;;1.88;1.33;;;;;;;;;;5032327;28;20064;-50
2021/08/28 12:21:25;;;;;;;0.98;0.90;;;;;;;;;;5032673;28;20104;-50
2021/08/28 12:23:51;;;;;;;1.23;1.08;;;;;;;;;;5032318;28;20034;-50
2021/08/28 12:26:18;;;;;;;3.83;1.40;;;;;;;;;;5031821;28;20029;-50
2021/08/28 12:28:44;;;;;;;1.83;1.17;;;;;;;;;;5032647;28;20030;-50
2021/08/28 12:31:10;;;;;;;6.35;1.40;;;;;;;;;;5032228;28;20044;-50
2021/08/28 12:33:36;;;;;;;1.17;1.08;;;;;;;;;;5031260;28;20080;-50
2021/08/28 12:36:02;;;;;;;1.73;1.13;;;;;;;;;;5032686;28;20443;-52
2021/08/28 12:38:31;;;;;;;2.75;1.20;;;;;;;;;;5032686;28;20029;-52
2021/08/28 12:40:58;;;;;;;2.17;1.30;;;;;;;;;;5028360;28;20404;-52
2021/08/28 12:43:25;;;;;;;1.17;0.95;;;;;;;;;;5019394;28;20037;-52
2021/08/28 12:45:52;;;;;;;1.35;1.23;;;;;;;;;;5035953;28;20067;-52
2021/08/28 12:48:18;;;;;;;1.77;1.20;;;;;;;;;;5036130;28;20363;-52
2021/08/28 12:50:44;;;;;;;1.70;1.15;;;;;;;;;;5036363;28;20025;-52
2021/08/28 12:53:10;;;;;;;1.02;1.02;;;;;;;;;;5036179;28;20064;-52
2021/08/28 12:55:36;;;;;;;0.95;0.65;;;;;;;;;;5034694;28;20132;-51
2021/08/28 12:58:08;;;;;;;1.40;0.85;;;;;;;;;;5036485;28;20163;-52
2021/08/28 13:00:47;;;;;;;1.15;1.05;;;;;;;;;;5036516;28;20044;-52
2021/08/28 13:03:25;;;;;;;1.13;1.02;;;;;;;;;;5036008;28;20155;-53
2021/08/28 13:05:51;;;;;;;1.08;0.82;;;;;;;;;;5035699;28;20462;-53
2021/08/28 13:08:28;;;;;;;0.80;0.80;;;;;;;;;;5036151;28;20025;-53
2021/08/28 13:10:54;;;;;;;0.93;0.80;;;;;;;;;;5035467;28;20029;-53
2021/08/28 13:13:20;;;;;;;1.35;1.02;;;;;;;;;;5035528;28;20576;-52
2021/08/28 13:15:46;;;;;;;2.05;1.20;;;;;;;;;;5036061;28;20036;-52
2021/08/28 13:18:13;;;;;;;1.00;1.00;;;;;;;;;;5035228;28;20032;-52
2021/08/28 13:20:41;;;;;;;1.42;1.00;;;;;;;;;;5035996;28;20079;-53
2021/08/28 13:23:11;;;;;;;1.00;0.90;;;;;;;;;;5036078;28;20022;-52
2021/08/28 13:25:38;;;;;;;1.00;0.90;;;;;;;;;;5034149;28;20025;-53
2021/08/28 13:28:23;;;;;;;2.75;1.15;;;;;;;;;;5035506;28;20037;-53
2021/08/28 13:30:51;;;;;;;0.93;0.93;;;;;;;;;;5035455;28;20041;-52
2021/08/28 13:33:35;;;;;;;0.88;0.82;;;;;;;;;;5034778;28;20110;-52
2021/08/28 13:36:02;;;;;;;2.05;0.95;;;;;;;;;;5035635;28;20337;-53
2021/08/28 13:38:28;;;;;;;0.90;0.90;;;;;;;;;;5035920;28;20024;-53
2021/08/28 13:40:54;;;;;;;0.80;0.80;;;;;;;;;;5034384;28;20367;-52
2021/08/28 13:43:22;;;;;;;1.05;0.80;;;;;;;;;;5034768;28;20045;-53
2021/08/28 13:45:48;;;;;;;0.80;0.80;;;;;;;;;;5035381;28;20112;-52
2021/08/28 13:48:14;;;;;;;1.15;0.90;;;;;;;;;;5035183;28;20017;-52
2021/08/28 13:50:40;;;;;;;0.85;0.82;;;;;;;;;;5035378;28;20387;-52
2021/08/28 13:53:06;;;;;;;2.05;1.00;;;;;;;;;;5035770;28;20091;-53
2021/08/28 13:55:32;;;;;;;0.70;0.70;;;;;;;;;;5033696;28;20065;-53
2021/08/28 13:57:58;;;;;;;0.75;0.75;;;;;;;;;;5034090;28;20108;-53
2021/08/28 14:00:24;;;;;;;0.95;0.70;;;;;;;;;;5034858;28;20092;-53
2021/08/28 14:02:50;;;;;;;0.60;0.60;;;;;;;;;;5034529;28;20034;-53
2021/08/28 14:05:16;;;;;;;0.70;0.70;;;;;;;;;;5033900;28;20120;-53
2021/08/28 14:07:43;;;;;;;0.77;0.77;;;;;;;;;;5034908;28;20034;-52
2021/08/28 14:10:09;;;;;;;0.50;0.50;;;;;;;;;;5034832;28;20033;-53
2021/08/28 14:12:35;;;;;;;0.88;0.70;;;;;;;;;;5033579;28;20025;-53
2021/08/28 14:15:01;;;;;;;0.68;0.55;;;;;;;;;;5034562;28;20040;-51
2021/08/28 14:17:30;;;;;;;0.57;0.57;;;;;;;;;;5034604;28;20033;-51
2021/08/28 14:19:57;;;;;;;0.77;0.70;;;;;;;;;;5034192;28;20653;-51
2021/08/28 14:22:23;;;;;;;1.38;0.80;;;;;;;;;;5034659;28;20513;-50
2021/08/28 14:24:49;;;;;;;0.85;0.70;;;;;;;;;;5033992;28;20052;-50
2021/08/28 14:27:15;;;;;;;0.60;0.60;;;;;;;;;;5033182;28;20061;-51
2021/08/28 14:29:41;;;;;;;0.70;0.70;;;;;;;;;;5034518;28;20032;-51
2021/08/28 14:32:07;;;;;;;0.50;0.50;;;;;;;;;;5034094;28;20021;-51
2021/08/28 14:34:34;;;;;;;0.80;0.73;;;;;;;;;;5032826;28;20049;-51
2021/08/28 14:37:01;;;;;;;0.55;0.55;;;;;;;;;;5033780;28;20037;-51
2021/08/28 14:39:27;;;;;;;0.70;0.70;;;;;;;;;;5032534;28;20417;-51
2021/08/28 14:41:53;;;;;;;1.00;0.70;;;;;;;;;;5032434;28;20091;-51
2021/08/28 14:44:19;;;;;;;0.50;0.50;;;;;;;;;;5032576;28;20411;-50